Time;durP1;ratioP1;P1;durP2;ratioP2;P2;SDS_P1;SDS_P2;PMS_P1;PMS_P2;Temp;Humidity;BMP_temperature;BMP_pressure;BME280_temperature;BME280_humidity;BME280_pressure;Samples;Min_cycle;Max_cycle;Signal;HPM_P1;HPM_P2
2023/08/19 00:02:10;;;;;;;14.00;12.73;;;;;;;;;;4989687;28;99527;-70
2023/08/19 00:04:36;;;;;;;16.98;13.45;;;;;;;;;;4989655;28;99964;-70
2023/08/19 00:07:03;;;;;;;17.42;13.65;;;;;;;;;;4990165;28;98837;-70
2023/08/19 00:09:34;;;;;;;15.10;13.50;;;;;;;;;;4988210;28;99406;-70
2023/08/19 00:12:00;;;;;;;16.48;12.73;;;;;;;;;;4989428;28;99949;-70
2023/08/19 00:14:27;;;;;;;15.45;14.05;;;;;;;;;;4988609;28;98235;-69
2023/08/19 00:16:53;;;;;;;14.88;13.48;;;;;;;;;;4988751;28;99400;-70
2023/08/19 00:19:19;;;;;;;15.63;14.15;;;;;;;;;;4993041;28;100012;-71
2023/08/19 00:21:46;;;;;;;14.88;13.30;;;;;;;;;;4990015;28;99515;-70
2023/08/19 00:24:12;;;;;;;15.98;14.25;;;;;;;;;;4988309;28;99908;-69
2023/08/19 00:26:39;;;;;;;16.67;14.13;;;;;;;;;;4989752;28;98216;-70
2023/08/19 00:29:06;;;;;;;15.38;13.85;;;;;;;;;;4988732;28;98603;-69
2023/08/19 00:31:33;;;;;;;15.93;14.45;;;;;;;;;;4988188;28;101534;-70
2023/08/19 00:33:59;;;;;;;14.52;13.13;;;;;;;;;;4989708;28;98139;-70
2023/08/19 00:36:26;;;;;;;16.73;13.77;;;;;;;;;;4989834;28;101550;-70
2023/08/19 00:38:57;;;;;;;16.33;13.73;;;;;;;;;;5007080;28;100795;-70
2023/08/19 00:41:24;;;;;;;15.27;13.65;;;;;;;;;;5011997;28;98333;-70
2023/08/19 00:43:50;;;;;;;16.55;14.13;;;;;;;;;;5003406;28;100059;-69
2023/08/19 00:46:18;;;;;;;14.15;12.75;;;;;;;;;;4988142;28;98243;-69
2023/08/19 00:48:44;;;;;;;14.32;13.02;;;;;;;;;;4988279;28;98264;-70
2023/08/19 00:51:11;;;;;;;14.80;13.52;;;;;;;;;;4987369;28;99242;-71
2023/08/19 00:53:37;;;;;;;15.57;14.13;;;;;;;;;;4973412;28;98128;-70
2023/08/19 00:56:04;;;;;;;15.48;13.95;;;;;;;;;;4977233;28;98037;-71
2023/08/19 00:58:30;;;;;;;16.08;13.98;;;;;;;;;;4978830;28;101837;-70
2023/08/19 01:00:57;;;;;;;16.10;14.20;;;;;;;;;;4987535;28;98271;-70
2023/08/19 01:03:24;;;;;;;15.48;13.70;;;;;;;;;;4991087;28;99827;-71
2023/08/19 01:05:51;;;;;;;15.70;14.20;;;;;;;;;;4986069;28;98348;-71
2023/08/19 01:08:21;;;;;;;15.80;14.20;;;;;;;;;;4978403;28;98711;-71
2023/08/19 01:11:07;;;;;;;16.55;14.82;;;;;;;;;;4970254;27;101234;-70
2023/08/19 01:13:57;;;;;;;17.45;14.32;;;;;;;;;;4967941;28;98493;-70
2023/08/19 01:16:25;;;;;;;16.20;13.88;;;;;;;;;;4982875;28;99302;-70
2023/08/19 01:18:52;;;;;;;17.50;13.50;;;;;;;;;;4985084;28;98734;-70
2023/08/19 01:21:19;;;;;;;17.10;13.98;;;;;;;;;;4969050;28;98337;-70
2023/08/19 01:23:47;;;;;;;15.27;13.88;;;;;;;;;;4983594;28;98680;-70
2023/08/19 01:26:16;;;;;;;17.80;14.70;;;;;;;;;;4993219;28;98959;-70
2023/08/19 01:28:42;;;;;;;16.08;14.45;;;;;;;;;;4990558;28;100224;-70
2023/08/19 01:31:09;;;;;;;15.45;13.73;;;;;;;;;;4992109;28;99013;-70
2023/08/19 01:33:35;;;;;;;14.73;13.45;;;;;;;;;;4990937;28;98189;-70
2023/08/19 01:36:10;;;;;;;15.77;14.15;;;;;;;;;;4980374;28;98749;-70
2023/08/19 01:38:44;;;;;;;15.73;14.07;;;;;;;;;;4978587;28;99141;-70
2023/08/19 01:41:12;;;;;;;16.90;14.45;;;;;;;;;;4996708;28;98355;-69
2023/08/19 01:43:39;;;;;;;21.20;14.00;;;;;;;;;;4983792;28;98434;-70
2023/08/19 01:46:06;;;;;;;16.13;14.63;;;;;;;;;;4974117;28;100029;-70
2023/08/19 01:48:32;;;;;;;15.75;14.15;;;;;;;;;;4980688;28;98254;-70
2023/08/19 01:50:59;;;;;;;15.77;14.30;;;;;;;;;;4985040;28;98783;-69
2023/08/19 01:53:27;;;;;;;17.52;15.55;;;;;;;;;;4979633;28;98605;-70
2023/08/19 01:55:54;;;;;;;16.52;14.55;;;;;;;;;;4985995;28;98215;-71
2023/08/19 01:58:20;;;;;;;16.50;14.88;;;;;;;;;;4988599;28;101194;-69
2023/08/19 02:00:46;;;;;;;16.23;14.68;;;;;;;;;;4989314;28;98209;-70
2023/08/19 02:03:13;;;;;;;18.38;15.85;;;;;;;;;;5000569;28;98137;-69
2023/08/19 02:05:39;;;;;;;15.98;14.50;;;;;;;;;;4970786;28;101165;-70
2023/08/19 02:08:06;;;;;;;16.75;14.95;;;;;;;;;;4976823;28;98266;-70
2023/08/19 02:10:32;;;;;;;16.45;14.35;;;;;;;;;;4987876;28;98992;-70
2023/08/19 02:12:59;;;;;;;17.35;15.18;;;;;;;;;;4989189;28;98098;-70
2023/08/19 02:15:25;;;;;;;16.83;15.02;;;;;;;;;;4989453;28;98475;-71
2023/08/19 02:17:52;;;;;;;20.30;14.93;;;;;;;;;;4989458;28;101494;-71
2023/08/19 02:20:18;;;;;;;16.08;14.52;;;;;;;;;;5008047;28;98338;-69
2023/08/19 02:22:45;;;;;;;19.92;14.60;;;;;;;;;;4992967;28;98555;-70
2023/08/19 02:25:13;;;;;;;17.25;15.45;;;;;;;;;;4990912;28;98766;-70
2023/08/19 02:27:40;;;;;;;21.67;15.43;;;;;;;;;;4990955;28;98225;-70
2023/08/19 02:30:06;;;;;;;25.35;15.15;;;;;;;;;;4992474;28;101089;-70
2023/08/19 02:32:34;;;;;;;16.10;14.45;;;;;;;;;;4991160;28;98208;-71
2023/08/19 02:35:01;;;;;;;18.35;15.13;;;;;;;;;;4991588;28;98427;-69
2023/08/19 02:37:29;;;;;;;17.38;14.57;;;;;;;;;;5008055;28;98805;-70
2023/08/19 02:39:56;;;;;;;19.80;15.20;;;;;;;;;;5005590;28;98381;-70
2023/08/19 02:42:22;;;;;;;16.45;14.75;;;;;;;;;;4988732;28;100428;-71
2023/08/19 02:44:49;;;;;;;18.05;15.88;;;;;;;;;;4988956;28;99204;-71
2023/08/19 02:47:15;;;;;;;19.25;14.95;;;;;;;;;;4991012;28;98187;-70
2023/08/19 02:49:42;;;;;;;17.63;14.95;;;;;;;;;;4982506;28;98310;-70
2023/08/19 02:52:09;;;;;;;19.95;16.35;;;;;;;;;;4984160;28;99894;-70
2023/08/19 02:54:35;;;;;;;20.13;16.00;;;;;;;;;;4975665;28;98458;-69
2023/08/19 02:57:02;;;;;;;17.42;15.68;;;;;;;;;;4968420;28;101583;-69
2023/08/19 02:59:29;;;;;;;20.83;16.30;;;;;;;;;;4986369;28;98366;-70
2023/08/19 03:01:55;;;;;;;17.80;15.98;;;;;;;;;;4990995;28;98307;-71
2023/08/19 03:04:22;;;;;;;20.50;15.95;;;;;;;;;;4981563;28;99997;-70
2023/08/19 03:06:48;;;;;;;16.83;15.25;;;;;;;;;;4969088;28;98220;-70
2023/08/19 03:09:15;;;;;;;17.33;15.48;;;;;;;;;;4977137;28;99291;-69
2023/08/19 03:11:41;;;;;;;17.13;15.35;;;;;;;;;;4975717;27;98468;-71
2023/08/19 03:14:08;;;;;;;17.42;15.75;;;;;;;;;;4975152;28;98864;-70
2023/08/19 03:16:35;;;;;;;21.42;16.88;;;;;;;;;;4988950;28;100622;-69
2023/08/19 03:19:01;;;;;;;19.50;16.55;;;;;;;;;;4988888;28;98518;-71
2023/08/19 03:21:28;;;;;;;21.77;16.48;;;;;;;;;;4986167;28;98658;-70
2023/08/19 03:23:55;;;;;;;19.08;16.38;;;;;;;;;;4970301;28;99922;-71
2023/08/19 03:26:22;;;;;;;19.50;15.77;;;;;;;;;;4968468;28;98198;-70
2023/08/19 03:28:49;;;;;;;19.75;16.48;;;;;;;;;;4985222;28;101107;-70
2023/08/19 03:31:15;;;;;;;20.30;16.27;;;;;;;;;;4976263;28;101197;-69
2023/08/19 03:33:42;;;;;;;18.58;16.50;;;;;;;;;;4989492;28;98276;-71
2023/08/19 03:36:09;;;;;;;21.55;17.33;;;;;;;;;;4990904;28;99473;-71
2023/08/19 03:38:35;;;;;;;19.90;16.85;;;;;;;;;;4971317;28;98340;-70
2023/08/19 03:41:02;;;;;;;17.95;16.02;;;;;;;;;;4983207;28;100521;-71
2023/08/19 03:43:29;;;;;;;17.30;15.60;;;;;;;;;;4974125;28;99690;-69
2023/08/19 03:45:55;;;;;;;19.52;16.88;;;;;;;;;;4969792;28;99984;-70
2023/08/19 03:48:22;;;;;;;27.52;17.42;;;;;;;;;;4981897;28;98741;-70
2023/08/19 03:50:48;;;;;;;21.58;16.67;;;;;;;;;;4971561;28;99066;-70
2023/08/19 03:53:15;;;;;;;20.27;17.17;;;;;;;;;;4984226;28;98358;-70
2023/08/19 03:55:41;;;;;;;20.60;16.30;;;;;;;;;;5001154;28;98712;-70
2023/08/19 03:58:08;;;;;;;18.50;16.67;;;;;;;;;;4973075;28;98226;-69
2023/08/19 04:00:34;;;;;;;21.25;17.25;;;;;;;;;;4969161;28;98679;-71
2023/08/19 04:03:01;;;;;;;20.30;17.13;;;;;;;;;;4972553;28;98957;-70
2023/08/19 04:05:28;;;;;;;19.10;16.52;;;;;;;;;;4968519;28;98276;-70
2023/08/19 04:07:54;;;;;;;19.40;17.40;;;;;;;;;;5001242;28;100042;-71
2023/08/19 04:10:22;;;;;;;25.65;18.33;;;;;;;;;;4981201;28;99469;-71
2023/08/19 04:12:48;;;;;;;20.30;17.00;;;;;;;;;;4988349;28;98208;-69
2023/08/19 04:15:15;;;;;;;20.48;18.00;;;;;;;;;;4967926;28;101083;-70
2023/08/19 04:17:41;;;;;;;23.48;17.70;;;;;;;;;;5003994;28;101361;-70
2023/08/19 04:20:08;;;;;;;27.08;17.08;;;;;;;;;;4984805;28;98839;-71
2023/08/19 04:22:36;;;;;;;21.83;18.13;;;;;;;;;;4973490;28;98949;-71
2023/08/19 04:25:03;;;;;;;18.38;16.60;;;;;;;;;;4969892;28;98362;-71
2023/08/19 04:27:31;;;;;;;19.48;17.45;;;;;;;;;;4982344;28;98529;-70
2023/08/19 04:29:59;;;;;;;20.52;16.38;;;;;;;;;;4987366;28;97980;-70
2023/08/19 04:32:25;;;;;;;17.40;15.60;;;;;;;;;;4987857;28;98354;-70
2023/08/19 04:34:53;;;;;;;18.20;16.23;;;;;;;;;;4988480;28;98448;-70
2023/08/19 04:37:19;;;;;;;19.52;16.58;;;;;;;;;;4987055;28;99002;-71
2023/08/19 04:39:46;;;;;;;20.50;16.05;;;;;;;;;;4990587;28;98324;-70
2023/08/19 04:42:20;;;;;;;20.00;16.15;;;;;;;;;;4986742;28;101591;-70
2023/08/19 04:44:47;;;;;;;19.08;16.30;;;;;;;;;;4987137;28;98381;-70
2023/08/19 04:47:14;;;;;;;17.50;15.18;;;;;;;;;;4988831;28;98899;-71
2023/08/19 04:49:41;;;;;;;17.63;14.60;;;;;;;;;;4986957;28;99121;-69
2023/08/19 04:52:07;;;;;;;16.77;15.15;;;;;;;;;;4988577;28;98209;-70
2023/08/19 04:54:34;;;;;;;16.73;14.98;;;;;;;;;;4989164;28;98330;-70
2023/08/19 04:57:00;;;;;;;18.15;14.60;;;;;;;;;;4987203;28;100814;-69
2023/08/19 04:59:27;;;;;;;19.33;14.45;;;;;;;;;;5021196;27;98809;-69
2023/08/19 05:01:53;;;;;;;15.75;13.73;;;;;;;;;;4994653;28;98491;-70
2023/08/19 05:04:20;;;;;;;17.73;13.32;;;;;;;;;;4981544;28;98392;-69
2023/08/19 05:06:47;;;;;;;18.08;13.48;;;;;;;;;;4978336;28;101161;-68
2023/08/19 05:09:14;;;;;;;16.90;12.50;;;;;;;;;;4981583;28;100036;-69
2023/08/19 05:11:41;;;;;;;14.45;12.82;;;;;;;;;;4970573;28;98396;-70
2023/08/19 05:14:09;;;;;;;17.98;13.05;;;;;;;;;;4971660;28;100764;-71
2023/08/19 05:16:35;;;;;;;13.20;11.55;;;;;;;;;;4970770;28;98937;-71
2023/08/19 05:19:03;;;;;;;12.90;11.27;;;;;;;;;;4976561;28;98400;-70
2023/08/19 05:21:31;;;;;;;13.27;11.90;;;;;;;;;;4976892;28;99901;-70
2023/08/19 05:23:58;;;;;;;12.15;11.05;;;;;;;;;;4986582;28;98872;-70
2023/08/19 05:26:24;;;;;;;11.98;10.77;;;;;;;;;;4988594;28;100445;-70
2023/08/19 05:28:51;;;;;;;16.35;11.90;;;;;;;;;;4976595;28;100031;-70
2023/08/19 05:31:17;;;;;;;13.20;11.18;;;;;;;;;;4991801;28;98272;-70
2023/08/19 05:33:44;;;;;;;15.10;11.00;;;;;;;;;;4990693;28;99575;-71
2023/08/19 05:36:10;;;;;;;15.80;10.73;;;;;;;;;;4978233;28;99214;-70
2023/08/19 05:38:36;;;;;;;16.52;11.32;;;;;;;;;;4984614;28;98160;-70
2023/08/19 05:41:03;;;;;;;22.50;11.68;;;;;;;;;;4990825;28;98499;-70
2023/08/19 05:43:29;;;;;;;12.18;10.90;;;;;;;;;;4990437;28;98985;-70
2023/08/19 05:45:57;;;;;;;13.55;10.70;;;;;;;;;;4979477;28;98289;-70
2023/08/19 05:48:24;;;;;;;14.25;9.63;;;;;;;;;;4978901;28;99374;-69
2023/08/19 05:50:50;;;;;;;12.57;10.75;;;;;;;;;;4992019;28;98088;-68
2023/08/19 05:53:16;;;;;;;11.75;10.60;;;;;;;;;;4989757;28;100061;-70
2023/08/19 05:55:43;;;;;;;11.52;10.32;;;;;;;;;;4989092;28;99813;-70
2023/08/19 05:58:09;;;;;;;17.80;11.35;;;;;;;;;;4974874;28;98285;-70
2023/08/19 06:00:36;;;;;;;11.85;9.63;;;;;;;;;;4979440;28;98653;-70
2023/08/19 06:03:02;;;;;;;12.85;10.40;;;;;;;;;;4991544;28;98966;-69
2023/08/19 06:05:29;;;;;;;12.05;10.93;;;;;;;;;;4994652;28;97852;-70
2023/08/19 06:07:55;;;;;;;20.15;10.75;;;;;;;;;;4989682;28;99761;-69
2023/08/19 06:10:22;;;;;;;14.63;10.43;;;;;;;;;;4987609;28;98791;-69
2023/08/19 06:12:48;;;;;;;11.32;10.07;;;;;;;;;;4986522;28;98410;-69
2023/08/19 06:15:14;;;;;;;13.93;10.05;;;;;;;;;;4977381;28;100200;-70
2023/08/19 06:17:41;;;;;;;12.93;8.98;;;;;;;;;;4991975;28;99084;-71
2023/08/19 06:20:08;;;;;;;10.50;9.50;;;;;;;;;;4991432;28;98668;-70
2023/08/19 06:22:34;;;;;;;11.30;9.07;;;;;;;;;;4986652;28;98866;-69
2023/08/19 06:25:01;;;;;;;9.95;8.93;;;;;;;;;;4971297;28;99488;-71
2023/08/19 06:27:27;;;;;;;13.60;8.63;;;;;;;;;;4982615;28;99352;-70
2023/08/19 06:29:54;;;;;;;9.60;8.70;;;;;;;;;;4988938;28;98820;-69
2023/08/19 06:32:21;;;;;;;16.92;8.82;;;;;;;;;;4990140;28;98396;-71
2023/08/19 06:34:48;;;;;;;12.80;9.15;;;;;;;;;;5003854;28;100192;-70
2023/08/19 06:37:23;;;;;;;12.68;8.70;;;;;;;;;;4999525;28;98235;-69
2023/08/19 06:39:51;;;;;;;12.27;8.77;;;;;;;;;;4989846;28;99715;-70
2023/08/19 06:42:18;;;;;;;8.80;7.90;;;;;;;;;;4989136;28;98836;-69
2023/08/19 06:44:48;;;;;;;14.77;8.20;;;;;;;;;;4985978;28;98346;-69
2023/08/19 06:47:16;;;;;;;17.33;8.40;;;;;;;;;;4989334;28;98494;-69
2023/08/19 06:49:43;;;;;;;10.43;8.95;;;;;;;;;;4991649;28;98914;-70
2023/08/19 06:52:10;;;;;;;10.30;8.55;;;;;;;;;;4990290;28;98530;-71
2023/08/19 06:54:37;;;;;;;8.68;7.55;;;;;;;;;;4989747;28;98778;-69
2023/08/19 06:57:08;;;;;;;14.18;9.15;;;;;;;;;;4987661;28;98203;-70
2023/08/19 06:59:36;;;;;;;9.95;8.30;;;;;;;;;;4990611;28;98973;-69
2023/08/19 07:02:04;;;;;;;11.48;8.63;;;;;;;;;;4989043;28;98906;-70
2023/08/19 07:04:31;;;;;;;15.02;8.18;;;;;;;;;;4987735;28;98290;-69
2023/08/19 07:06:58;;;;;;;9.07;8.15;;;;;;;;;;4986561;28;98508;-70
2023/08/19 07:09:26;;;;;;;13.38;8.18;;;;;;;;;;4989033;28;98957;-73
2023/08/19 07:11:53;;;;;;;12.85;7.88;;;;;;;;;;4991653;28;98334;-70
2023/08/19 07:14:20;;;;;;;12.35;7.95;;;;;;;;;;4988956;28;100044;-70
2023/08/19 07:16:48;;;;;;;12.20;7.40;;;;;;;;;;4982636;28;98410;-71
2023/08/19 07:19:16;;;;;;;7.72;6.93;;;;;;;;;;4976821;28;99540;-70
2023/08/19 07:21:46;;;;;;;9.25;6.90;;;;;;;;;;4972824;28;98971;-71
2023/08/19 07:24:13;;;;;;;10.18;7.20;;;;;;;;;;4976824;28;99407;-70
2023/08/19 07:26:40;;;;;;;11.02;6.47;;;;;;;;;;4983996;28;98719;-72
2023/08/19 07:29:06;;;;;;;9.57;6.63;;;;;;;;;;4990631;28;99824;-71
2023/08/19 07:31:33;;;;;;;10.88;6.05;;;;;;;;;;4989467;28;98216;-71
2023/08/19 07:33:59;;;;;;;8.30;6.53;;;;;;;;;;4979134;28;98890;-71
2023/08/19 07:36:26;;;;;;;14.57;6.68;;;;;;;;;;4978074;28;98133;-70
2023/08/19 07:38:53;;;;;;;7.35;6.13;;;;;;;;;;4989587;28;99888;-69
2023/08/19 07:41:20;;;;;;;11.88;6.57;;;;;;;;;;4990202;28;99852;-69
2023/08/19 07:43:47;;;;;;;6.57;5.97;;;;;;;;;;4981435;28;99776;-71
2023/08/19 07:46:17;;;;;;;10.00;5.75;;;;;;;;;;4993570;28;98434;-71
2023/08/19 07:48:44;;;;;;;10.32;6.25;;;;;;;;;;4985781;28;99879;-71
2023/08/19 07:51:11;;;;;;;8.00;5.88;;;;;;;;;;4986821;28;98498;-72
2023/08/19 07:53:37;;;;;;;10.98;6.30;;;;;;;;;;4976098;28;98619;-70
2023/08/19 07:56:05;;;;;;;10.90;5.57;;;;;;;;;;4993063;28;99062;-71
2023/08/19 07:58:33;;;;;;;8.35;6.05;;;;;;;;;;4989434;28;99369;-70
2023/08/19 08:00:59;;;;;;;7.13;6.07;;;;;;;;;;4984870;28;99966;-70
2023/08/19 08:03:26;;;;;;;9.27;5.97;;;;;;;;;;4974347;28;98203;-71
2023/08/19 08:05:53;;;;;;;10.25;6.55;;;;;;;;;;4985052;28;98609;-70
2023/08/19 08:08:20;;;;;;;12.20;6.32;;;;;;;;;;4968547;28;99618;-71
2023/08/19 08:10:46;;;;;;;6.45;5.85;;;;;;;;;;4983135;28;99195;-71
2023/08/19 08:13:13;;;;;;;8.30;5.80;;;;;;;;;;4986629;28;98455;-70
2023/08/19 08:15:40;;;;;;;7.55;5.93;;;;;;;;;;4985071;28;98901;-70
2023/08/19 08:18:06;;;;;;;6.80;6.00;;;;;;;;;;4973529;28;99524;-70
2023/08/19 08:20:33;;;;;;;9.88;6.35;;;;;;;;;;4968239;28;99913;-71
2023/08/19 08:23:00;;;;;;;9.95;6.25;;;;;;;;;;4971118;28;99433;-70
2023/08/19 08:25:26;;;;;;;13.48;6.32;;;;;;;;;;4971681;28;100316;-71
2023/08/19 08:27:53;;;;;;;8.63;5.63;;;;;;;;;;4973623;28;99160;-70
2023/08/19 08:30:19;;;;;;;15.40;5.97;;;;;;;;;;4975285;28;98310;-70
2023/08/19 08:32:46;;;;;;;8.93;5.88;;;;;;;;;;4967357;28;99440;-70
2023/08/19 08:35:12;;;;;;;7.32;6.47;;;;;;;;;;4972602;28;100027;-70
2023/08/19 08:37:39;;;;;;;9.23;5.95;;;;;;;;;;4976396;28;100459;-70
2023/08/19 08:40:07;;;;;;;7.80;6.10;;;;;;;;;;4972473;28;99419;-70
2023/08/19 08:42:33;;;;;;;6.20;5.60;;;;;;;;;;4972164;28;98773;-70
2023/08/19 08:45:00;;;;;;;8.80;6.00;;;;;;;;;;4972725;28;98460;-70
2023/08/19 08:47:27;;;;;;;11.05;5.93;;;;;;;;;;4967912;28;100600;-71
2023/08/19 08:49:54;;;;;;;7.45;6.43;;;;;;;;;;4969721;28;98971;-70
2023/08/19 08:52:21;;;;;;;9.25;6.05;;;;;;;;;;4976822;28;99414;-71
2023/08/19 08:54:51;;;;;;;11.55;6.32;;;;;;;;;;4975681;28;99582;-70
2023/08/19 08:57:18;;;;;;;9.32;6.10;;;;;;;;;;4981916;28;98254;-70
2023/08/19 08:59:44;;;;;;;7.45;6.35;;;;;;;;;;4979306;28;99390;-71
2023/08/19 09:02:12;;;;;;;7.60;6.20;;;;;;;;;;4974154;28;98356;-70
2023/08/19 09:04:39;;;;;;;13.05;6.22;;;;;;;;;;4972453;28;99696;-71
2023/08/19 09:07:10;;;;;;;7.40;6.45;;;;;;;;;;4973537;28;99204;-71
2023/08/19 09:09:36;;;;;;;7.53;6.82;;;;;;;;;;4978170;28;98268;-71
2023/08/19 09:12:04;;;;;;;13.13;6.68;;;;;;;;;;4970412;28;100247;-71
2023/08/19 09:14:30;;;;;;;7.32;6.53;;;;;;;;;;4973255;28;98897;-71
2023/08/19 09:16:57;;;;;;;9.23;6.70;;;;;;;;;;4983005;28;98987;-72
2023/08/19 09:19:23;;;;;;;10.55;6.80;;;;;;;;;;4980764;28;98512;-70
2023/08/19 09:21:50;;;;;;;9.90;6.57;;;;;;;;;;4980788;28;99030;-72
2023/08/19 09:24:17;;;;;;;7.07;6.47;;;;;;;;;;4973414;28;99362;-73
2023/08/19 09:26:44;;;;;;;9.38;7.05;;;;;;;;;;4972594;28;99984;-70
2023/08/19 09:29:11;;;;;;;9.23;6.78;;;;;;;;;;4970616;28;98242;-70
2023/08/19 09:31:40;;;;;;;10.65;6.93;;;;;;;;;;4972558;28;98765;-71
2023/08/19 09:34:07;;;;;;;8.68;7.22;;;;;;;;;;4982317;28;100285;-71
2023/08/19 09:36:33;;;;;;;18.27;7.35;;;;;;;;;;4974962;28;98408;-70
2023/08/19 09:39:00;;;;;;;11.98;7.70;;;;;;;;;;4978795;28;98630;-72
2023/08/19 09:41:28;;;;;;;8.70;7.63;;;;;;;;;;4976097;28;99859;-70
2023/08/19 09:43:54;;;;;;;10.40;8.13;;;;;;;;;;4982162;28;99944;-71
2023/08/19 09:46:29;;;;;;;12.93;9.20;;;;;;;;;;4981059;28;99639;-73
2023/08/19 09:48:56;;;;;;;16.13;8.90;;;;;;;;;;4975463;28;98279;-70
2023/08/19 09:51:29;;;;;;;11.13;9.57;;;;;;;;;;4973302;28;99956;-71
2023/08/19 09:53:56;;;;;;;13.38;9.40;;;;;;;;;;4971995;28;99611;-71
2023/08/19 09:56:24;;;;;;;14.90;8.25;;;;;;;;;;4979028;28;99249;-71
2023/08/19 09:58:51;;;;;;;11.45;8.40;;;;;;;;;;4982076;28;99725;-71
2023/08/19 10:01:18;;;;;;;14.05;9.70;;;;;;;;;;4978311;28;99906;-70
2023/08/19 10:03:45;;;;;;;16.15;10.32;;;;;;;;;;4976834;28;98386;-71
2023/08/19 10:06:11;;;;;;;11.88;8.95;;;;;;;;;;4978724;28;99331;-72
2023/08/19 10:08:40;;;;;;;12.55;9.70;;;;;;;;;;4982679;28;98207;-71
2023/08/19 10:11:07;;;;;;;11.82;9.23;;;;;;;;;;4971884;28;98629;-71
2023/08/19 10:13:34;;;;;;;11.55;9.73;;;;;;;;;;4970456;28;100155;-71
2023/08/19 10:16:03;;;;;;;12.20;9.93;;;;;;;;;;4981659;28;98330;-71
2023/08/19 10:18:32;;;;;;;12.23;9.13;;;;;;;;;;4978794;28;99567;-71
2023/08/19 10:21:00;;;;;;;13.85;9.50;;;;;;;;;;4971783;28;98553;-72
2023/08/19 10:23:27;;;;;;;23.00;9.48;;;;;;;;;;4975777;28;99574;-71
2023/08/19 10:25:56;;;;;;;12.75;8.93;;;;;;;;;;4995607;28;102180;-71
2023/08/19 10:28:24;;;;;;;11.00;8.25;;;;;;;;;;4972818;28;98249;-71
2023/08/19 10:31:13;;;;;;;10.30;6.05;;;;;;;;;;4978331;28;99751;-72
2023/08/19 10:33:42;;;;;;;7.22;5.45;;;;;;;;;;4981566;28;99976;-73
2023/08/19 10:36:16;;;;;;;10.77;4.57;;;;;;;;;;4979604;28;98382;-72
2023/08/19 10:38:56;;;;;;;6.53;4.90;;;;;;;;;;4988287;28;99390;-72
2023/08/19 10:41:24;;;;;;;4.70;4.20;;;;;;;;;;4977038;28;99173;-71
2023/08/19 10:43:57;;;;;;;8.95;5.13;;;;;;;;;;4976425;28;98183;-72
2023/08/19 10:46:29;;;;;;;5.45;3.58;;;;;;;;;;4971762;28;99113;-71
2023/08/19 10:48:56;;;;;;;3.80;3.38;;;;;;;;;;4978086;28;98998;-71
2023/08/19 10:51:42;;;;;;;3.80;3.50;;;;;;;;;;4975012;28;99994;-71
2023/08/19 10:54:09;;;;;;;4.10;3.75;;;;;;;;;;4973667;28;100368;-71
2023/08/19 10:56:35;;;;;;;6.82;4.55;;;;;;;;;;4979079;28;99515;-70
2023/08/19 10:59:02;;;;;;;4.90;4.50;;;;;;;;;;4969710;28;99630;-70
2023/08/19 11:01:32;;;;;;;4.13;3.70;;;;;;;;;;4969575;28;100398;-70
2023/08/19 11:03:59;;;;;;;4.90;3.60;;;;;;;;;;4972180;28;100659;-71
2023/08/19 11:06:30;;;;;;;4.32;3.83;;;;;;;;;;4973579;28;99540;-71
2023/08/19 11:08:59;;;;;;;3.75;3.45;;;;;;;;;;4971736;28;100400;-71
2023/08/19 11:11:30;;;;;;;4.05;3.45;;;;;;;;;;4977290;28;99849;-73
2023/08/19 11:13:58;;;;;;;5.50;3.70;;;;;;;;;;4980606;28;99684;-71
2023/08/19 11:16:29;;;;;;;5.15;3.35;;;;;;;;;;4982169;28;98653;-71
2023/08/19 11:18:56;;;;;;;3.85;2.97;;;;;;;;;;4976424;28;99882;-71
2023/08/19 11:21:25;;;;;;;4.80;2.70;;;;;;;;;;4974249;28;98997;-71
2023/08/19 11:23:53;;;;;;;4.15;3.17;;;;;;;;;;4980680;28;98385;-71
2023/08/19 11:26:19;;;;;;;6.22;2.80;;;;;;;;;;4974214;28;100204;-72
2023/08/19 11:28:47;;;;;;;9.65;3.35;;;;;;;;;;4977720;28;99932;-71
2023/08/19 11:31:13;;;;;;;3.88;3.42;;;;;;;;;;4975494;28;98408;-71
2023/08/19 11:33:42;;;;;;;3.70;3.00;;;;;;;;;;4978847;28;99805;-70
2023/08/19 11:36:08;;;;;;;3.95;3.50;;;;;;;;;;4979258;28;98412;-73
2023/08/19 11:38:34;;;;;;;4.10;3.70;;;;;;;;;;4984372;28;98656;-71
2023/08/19 11:41:01;;;;;;;4.20;3.30;;;;;;;;;;4978472;27;99095;-71
2023/08/19 11:43:31;;;;;;;6.63;3.65;;;;;;;;;;4982474;28;99989;-71
2023/08/19 11:45:57;;;;;;;14.23;3.72;;;;;;;;;;4986394;28;100173;-70
2023/08/19 11:48:25;;;;;;;5.13;3.35;;;;;;;;;;4980492;28;100616;-71
2023/08/19 11:50:52;;;;;;;5.32;3.65;;;;;;;;;;4989263;28;98197;-70
2023/08/19 11:53:24;;;;;;;4.15;3.80;;;;;;;;;;4987958;28;98728;-72
2023/08/19 11:55:56;;;;;;;3.75;3.13;;;;;;;;;;4992359;28;99994;-72
2023/08/19 11:58:22;;;;;;;4.80;3.57;;;;;;;;;;4987426;28;100357;-70
2023/08/19 12:00:53;;;;;;;10.82;3.78;;;;;;;;;;4989008;28;99955;-73
2023/08/19 12:03:20;;;;;;;4.45;4.05;;;;;;;;;;4988622;28;98432;-72
2023/08/19 12:05:47;;;;;;;5.03;3.60;;;;;;;;;;4988940;28;98867;-72
2023/08/19 12:08:26;;;;;;;5.28;3.88;;;;;;;;;;4988266;28;99835;-72
2023/08/19 12:10:52;;;;;;;6.65;4.50;;;;;;;;;;4989134;28;98248;-72
2023/08/19 12:13:22;;;;;;;5.20;4.53;;;;;;;;;;4988522;28;98612;-71
2023/08/19 12:15:48;;;;;;;5.10;3.92;;;;;;;;;;4989198;28;99870;-72
2023/08/19 12:18:16;;;;;;;5.53;4.97;;;;;;;;;;4992923;28;98046;-71
2023/08/19 12:20:42;;;;;;;4.97;4.53;;;;;;;;;;4988820;28;100412;-71
2023/08/19 12:23:09;;;;;;;10.18;5.07;;;;;;;;;;4989638;28;98216;-71
2023/08/19 12:25:50;;;;;;;7.75;4.63;;;;;;;;;;4989699;28;99321;-72
2023/08/19 12:28:17;;;;;;;4.75;4.35;;;;;;;;;;4987246;28;100106;-72
2023/08/19 12:30:44;;;;;;;4.20;3.72;;;;;;;;;;4989209;28;98134;-72
2023/08/19 12:33:12;;;;;;;6.53;4.00;;;;;;;;;;4988726;28;99700;-71
2023/08/19 12:35:38;;;;;;;4.80;4.03;;;;;;;;;;4987934;28;100031;-71
2023/08/19 12:38:08;;;;;;;7.22;4.47;;;;;;;;;;4991489;28;98331;-71
2023/08/19 12:40:35;;;;;;;5.05;4.28;;;;;;;;;;4987991;28;99883;-71
2023/08/19 12:43:02;;;;;;;5.15;3.53;;;;;;;;;;4989678;28;98196;-71
2023/08/19 12:45:29;;;;;;;5.20;3.75;;;;;;;;;;4988912;28;99405;-71
2023/08/19 12:47:55;;;;;;;5.43;4.10;;;;;;;;;;4988065;28;100501;-72
2023/08/19 12:50:22;;;;;;;9.70;5.35;;;;;;;;;;4989006;28;98233;-71
2023/08/19 12:52:49;;;;;;;8.98;5.43;;;;;;;;;;4989349;28;98818;-71
2023/08/19 12:55:18;;;;;;;5.47;4.78;;;;;;;;;;4988148;28;99396;-71
2023/08/19 12:57:45;;;;;;;8.88;4.32;;;;;;;;;;4988447;28;98540;-71
2023/08/19 13:00:12;;;;;;;9.85;3.55;;;;;;;;;;4990797;28;99743;-72
2023/08/19 13:02:39;;;;;;;3.88;3.53;;;;;;;;;;4988713;28;98255;-71
2023/08/19 13:05:06;;;;;;;14.65;3.90;;;;;;;;;;4989449;28;98254;-72
2023/08/19 13:07:34;;;;;;;6.25;3.10;;;;;;;;;;4988329;28;99084;-71
2023/08/19 13:10:01;;;;;;;8.88;3.70;;;;;;;;;;4988002;28;99788;-72
2023/08/19 13:12:28;;;;;;;8.00;2.38;;;;;;;;;;4987266;28;99447;-72
2023/08/19 13:14:54;;;;;;;2.65;2.42;;;;;;;;;;4989212;28;100650;-72
2023/08/19 13:17:22;;;;;;;6.22;2.33;;;;;;;;;;4987483;28;98550;-72
2023/08/19 13:19:56;;;;;;;5.47;2.17;;;;;;;;;;4988836;28;98468;-71
2023/08/19 13:22:23;;;;;;;4.80;2.13;;;;;;;;;;4993973;28;98946;-71
2023/08/19 13:24:50;;;;;;;6.60;1.65;;;;;;;;;;4991515;28;98812;-71
2023/08/19 13:27:17;;;;;;;5.50;1.90;;;;;;;;;;4991887;28;100070;-72
2023/08/19 13:29:44;;;;;;;1.52;1.15;;;;;;;;;;4991647;28;98218;-72
2023/08/19 13:32:10;;;;;;;3.78;1.55;;;;;;;;;;4991683;28;99410;-72
2023/08/19 13:34:37;;;;;;;5.60;1.30;;;;;;;;;;4992342;28;99865;-71
2023/08/19 13:37:04;;;;;;;2.25;1.23;;;;;;;;;;4975969;28;98954;-71
2023/08/19 13:39:31;;;;;;;2.28;0.88;;;;;;;;;;4972777;28;99590;-72
2023/08/19 13:41:58;;;;;;;4.53;1.25;;;;;;;;;;4971536;28;100122;-70
2023/08/19 13:44:25;;;;;;;6.75;1.35;;;;;;;;;;4975150;28;98412;-71
2023/08/19 13:46:52;;;;;;;4.43;1.35;;;;;;;;;;4990259;28;99904;-72
2023/08/19 13:49:19;;;;;;;2.58;1.20;;;;;;;;;;4991581;28;98300;-71
2023/08/19 13:51:48;;;;;;;3.22;1.00;;;;;;;;;;4991316;28;99651;-71
2023/08/19 13:54:15;;;;;;;5.20;1.45;;;;;;;;;;4991502;28;99987;-71
2023/08/19 13:56:44;;;;;;;4.75;1.50;;;;;;;;;;4991840;28;98264;-71
2023/08/19 13:59:10;;;;;;;4.75;1.27;;;;;;;;;;4990930;28;98419;-71
2023/08/19 14:01:38;;;;;;;5.32;1.48;;;;;;;;;;4991229;28;100132;-71
2023/08/19 14:04:05;;;;;;;5.15;1.63;;;;;;;;;;4992339;28;98217;-72
2023/08/19 14:06:31;;;;;;;3.97;1.60;;;;;;;;;;4994076;28;98896;-72
2023/08/19 14:08:58;;;;;;;6.72;1.45;;;;;;;;;;4991638;28;98446;-71
2023/08/19 14:11:24;;;;;;;6.90;1.40;;;;;;;;;;4990405;28;99722;-72
2023/08/19 14:13:51;;;;;;;6.32;1.48;;;;;;;;;;4990665;28;99137;-71
2023/08/19 14:16:18;;;;;;;5.10;1.52;;;;;;;;;;4991562;28;98232;-71
2023/08/19 14:18:44;;;;;;;3.72;1.48;;;;;;;;;;4991519;28;99026;-71
2023/08/19 14:21:11;;;;;;;5.75;2.92;;;;;;;;;;4990281;28;99058;-72
2023/08/19 14:23:38;;;;;;;6.38;1.50;;;;;;;;;;4991506;28;98281;-71
2023/08/19 14:26:05;;;;;;;4.72;1.73;;;;;;;;;;4990919;28;98830;-71
2023/08/19 14:28:33;;;;;;;2.90;1.65;;;;;;;;;;4993463;28;98241;-72